Time;durP1;ratioP1;P1;durP2;ratioP2;P2;SDS_P1;SDS_P2;PMS_P1;PMS_P2;Temp;Humidity;BMP_temperature;BMP_pressure;BME280_temperature;BME280_humidity;BME280_pressure;Samples;Min_cycle;Max_cycle;Signal;HPM_P1;HPM_P2
2023/07/03 00:00:35;;;;;;;;;4.33;4.33;;;;;20.70;46.29;100781.50;5095258;27;48085;-80
2023/07/03 00:03:01;;;;;;;;;3.00;3.00;;;;;20.69;46.05;100788.75;5096975;27;45333;-79
2023/07/03 00:05:27;;;;;;;;;2.00;2.00;;;;;20.67;46.56;100793.44;5096147;27;45464;-81
2023/07/03 00:07:53;;;;;;;;;6.25;3.25;;;;;20.46;46.44;100747.72;5097153;27;45412;-80
2023/07/03 00:10:21;;;;;;;;;2.75;2.75;;;;;20.65;47.15;100790.06;5097195;27;45381;-81
2023/07/03 00:12:47;;;;;;;;;2.50;2.50;;;;;20.50;47.29;100775.31;5097202;27;45482;-80
2023/07/03 00:15:13;;;;;;;;;5.00;2.67;;;;;20.51;47.18;100777.84;5113205;27;45301;-81
2023/07/03 00:17:39;;;;;;;;;6.33;3.67;;;;;20.55;47.59;100783.81;5096998;27;45572;-80
2023/07/03 00:20:06;;;;;;;;;5.00;3.67;;;;;20.45;48.26;100767.66;5111167;27;47984;-79
2023/07/03 00:22:31;;;;;;;;;2.67;2.67;;;;;20.39;48.46;100778.13;5097316;27;45369;-80
2023/07/03 00:24:56;;;;;;;;;3.00;3.00;;;;;20.04;49.80;100748.03;5097264;27;45478;-77
2023/07/03 00:27:22;;;;;;;;;2.67;2.67;;;;;20.11;50.30;100756.41;5097224;27;45594;-80
2023/07/03 00:29:47;;;;;;;;;4.00;3.00;;;;;20.10;50.40;100772.75;5096528;27;46032;-78
2023/07/03 00:32:13;;;;;;;;;1.67;1.67;;;;;20.09;50.15;100765.66;5076639;28;45458;-79
2023/07/03 00:34:38;;;;;;;;;2.33;2.00;;;;;20.02;50.52;100760.81;5076881;27;45337;-77
2023/07/03 00:37:04;;;;;;;;;4.00;3.00;;;;;19.94;50.56;100749.03;5085541;27;45421;-79
2023/07/03 00:39:29;;;;;;;;;3.33;3.00;;;;;19.95;50.52;100743.50;5096978;27;47182;-79
2023/07/03 00:41:55;;;;;;;;;4.00;2.00;;;;;20.15;50.73;100770.47;5096389;27;45701;-79
2023/07/03 00:44:20;;;;;;;;;3.33;3.33;;;;;20.06;50.75;100756.00;5097124;27;45194;-78
2023/07/03 00:46:49;;;;;;;;;3.33;2.33;;;;;20.08;50.15;100764.81;5096785;27;45639;-80
2023/07/03 00:49:16;;;;;;;;;2.33;2.33;;;;;20.02;50.05;100746.47;5096713;27;45456;-80
2023/07/03 00:51:48;;;;;;;;;3.67;2.33;;;;;20.12;50.64;100758.13;5096198;27;46339;-78
2023/07/03 00:54:17;;;;;;;;;1.00;1.00;;;;;19.94;50.42;100733.69;5095207;27;45427;-80
2023/07/03 00:56:42;;;;;;;;;4.33;3.00;;;;;20.06;50.70;100744.34;5096996;27;45538;-78
2023/07/03 00:59:07;;;;;;;;;4.67;3.33;;;;;20.11;51.14;100763.66;5094916;27;45967;-78
2023/07/03 01:01:43;;;;;;;;;4.00;2.67;;;;;19.97;51.04;100746.06;5096276;27;45404;-79
2023/07/03 01:04:18;;;;;;;;;6.33;4.67;;;;;20.11;50.76;100763.66;5096725;27;45203;-77
2023/07/03 01:06:50;;;;;;;;;3.67;3.67;;;;;19.86;50.98;100711.97;5112842;27;45634;-79
2023/07/03 01:09:19;;;;;;;;;5.00;5.00;;;;;20.12;51.13;100758.13;5096151;27;45421;-78
2023/07/03 01:11:47;;;;;;;;;8.25;4.00;;;;;20.10;50.94;100757.41;5094568;27;45749;-79
2023/07/03 01:14:17;;;;;;;;;5.75;4.00;;;;;20.09;50.97;100757.56;5096668;27;45244;-76
2023/07/03 01:16:43;;;;;;;;;4.00;4.00;;;;;20.16;51.27;100761.38;5096657;27;45586;-78
2023/07/03 01:19:15;;;;;;;;;4.67;4.33;;;;;20.15;50.69;100759.69;5095054;27;46185;-78
2023/07/03 01:21:49;;;;;;;;;8.00;4.67;;;;;20.14;51.26;100764.22;5095891;27;45484;-76
2023/07/03 01:24:40;;;;;;;;;3.67;1.67;;;;;20.17;51.25;100763.94;5096403;27;45285;-79
2023/07/03 01:27:09;;;;;;;;;5.00;5.00;;;;;19.98;51.60;100723.47;5094816;27;45228;-79
2023/07/03 01:29:37;;;;;;;;;5.00;5.00;;;;;20.16;51.11;100756.81;5096281;27;46863;-78
2023/07/03 01:32:05;;;;;;;;;4.00;3.00;;;;;20.08;51.53;100745.06;5095164;27;45432;-79
2023/07/03 01:34:32;;;;;;;;;7.00;3.67;;;;;20.13;51.50;100758.97;5096021;27;45236;-78
2023/07/03 01:37:01;;;;;;;;;5.33;4.33;;;;;20.10;51.09;100757.41;5096793;27;45564;-79
2023/07/03 01:39:26;;;;;;;;;9.00;4.00;;;;;19.96;51.50;100739.81;5095288;27;46783;-78
2023/07/03 01:41:54;;;;;;;;;3.67;3.00;;;;;20.07;51.65;100757.72;5095752;27;45329;-78
2023/07/03 01:44:20;;;;;;;;;5.25;3.75;;;;;20.02;51.26;100754.56;5096419;27;45268;-79
2023/07/03 01:46:45;;;;;;;;;5.33;3.67;;;;;20.00;52.31;100756.56;5095300;27;45504;-80
2023/07/03 01:49:13;;;;;;;;;3.33;3.33;;;;;19.83;51.85;100733.84;5096164;27;45598;-80
2023/07/03 01:51:49;;;;;;;;;4.67;3.33;;;;;19.99;51.34;100761.09;5093554;27;46678;-79
2023/07/03 01:54:25;;;;;;;;;5.67;4.33;;;;;20.04;52.48;100763.38;5096238;27;45346;-78
2023/07/03 01:56:54;;;;;;;;;3.67;3.67;;;;;19.98;52.32;100761.25;5098203;27;45509;-78
2023/07/03 01:59:24;;;;;;;;;3.33;3.33;;;;;20.02;52.27;100763.50;5098856;27;46672;-81
2023/07/03 02:02:02;;;;;;;;;5.00;3.67;;;;;20.02;52.11;100766.22;5097844;27;45782;-81
2023/07/03 02:04:43;;;;;;;;;8.67;5.00;;;;;19.85;52.36;100725.59;5100045;27;45419;-81
2023/07/03 02:07:11;;;;;;;;;3.33;3.33;;;;;19.91;52.49;100741.22;5099842;27;45176;-81
2023/07/03 02:09:39;;;;;;;;;8.00;4.33;;;;;19.66;52.97;100713.81;5099617;27;45377;-81
2023/07/03 02:12:06;;;;;;;;;5.33;4.00;;;;;19.93;52.24;100767.09;5079802;27;45307;-81
2023/07/03 02:14:34;;;;;;;;;4.67;3.00;;;;;19.90;52.75;100745.75;5079349;27;45259;-81
2023/07/03 02:17:00;;;;;;;;;1.67;1.67;;;;;19.90;52.98;100750.31;5098242;27;45537;-82
2023/07/03 02:19:28;;;;;;;;;6.33;6.33;;;;;19.82;53.33;100737.53;5099836;27;46975;-80
2023/07/03 02:21:54;;;;;;;;;7.00;5.67;;;;;19.91;53.04;100747.47;5098966;27;45443;-80
2023/07/03 02:24:21;;;;;;;;;5.00;5.00;;;;;19.68;52.77;100725.31;5099524;27;45332;-81
2023/07/03 02:26:47;;;;;;;;;8.00;5.00;;;;;19.87;52.77;100751.44;5098424;27;45277;-81
2023/07/03 02:29:12;;;;;;;;;6.33;5.33;;;;;19.96;52.92;100747.91;5102495;27;46319;-81
2023/07/03 02:31:38;;;;;;;;;5.00;3.00;;;;;19.98;52.67;100734.25;5099193;27;45409;-80
2023/07/03 02:34:03;;;;;;;;;8.67;5.33;;;;;19.92;52.78;100733.00;5100083;27;45381;-81
2023/07/03 02:36:30;;;;;;;;;3.67;2.67;;;;;19.97;52.60;100736.09;5098869;27;54439;-80
2023/07/03 02:38:56;;;;;;;;;3.67;2.67;;;;;19.91;53.33;100725.00;5099092;27;46597;-78
2023/07/03 02:41:22;;;;;;;;;3.33;2.67;;;;;19.83;53.58;100725.75;5097249;27;45412;-81
2023/07/03 02:43:48;;;;;;;;;6.33;4.67;;;;;19.78;53.17;100721.75;5098878;27;45325;-80
2023/07/03 02:46:13;;;;;;;;;8.00;6.67;;;;;19.87;53.64;100734.41;5099125;27;45599;-80
2023/07/03 02:48:39;;;;;;;;;5.33;4.33;;;;;19.89;53.92;100740.50;5098469;27;45393;-80
2023/07/03 02:51:05;;;;;;;;;7.00;5.33;;;;;19.87;53.73;100740.66;5098054;27;45340;-79
2023/07/03 02:53:30;;;;;;;;;5.67;4.00;;;;;19.82;54.27;100747.47;5098982;27;45369;-81
2023/07/03 02:55:55;;;;;;;;;9.00;6.00;;;;;19.71;54.05;100726.88;5098435;27;45454;-80
2023/07/03 02:58:21;;;;;;;;;6.00;5.00;;;;;19.79;53.93;100735.09;5098332;27;45330;-79
2023/07/03 03:00:49;;;;;;;;;5.67;5.67;;;;;19.78;54.31;100738.78;5098073;27;45325;-80
2023/07/03 03:03:14;;;;;;;;;7.00;4.00;;;;;19.80;53.97;100734.13;5098660;27;45514;-79
2023/07/03 03:05:39;;;;;;;;;7.33;6.00;;;;;19.78;54.56;100727.16;5097867;27;45491;-80
2023/07/03 03:08:05;;;;;;;;;5.00;5.00;;;;;19.53;53.97;100698.84;5097847;27;45461;-79
2023/07/03 03:10:30;;;;;;;;;7.67;6.00;;;;;19.71;54.86;100740.38;5098143;27;45446;-79
2023/07/03 03:12:56;;;;;;;;;6.67;6.67;;;;;19.55;54.94;100711.25;5098071;27;45354;-80
2023/07/03 03:15:21;;;;;;;;;7.00;6.00;;;;;19.68;54.89;100746.91;5097574;27;57341;-79
2023/07/03 03:17:46;;;;;;;;;5.67;5.33;;;;;19.43;54.39;100704.25;5098090;27;45618;-80
2023/07/03 03:20:13;;;;;;;;;6.67;6.67;;;;;19.44;54.59;100701.41;5097035;27;45503;-81
2023/07/03 03:22:40;;;;;;;;;8.00;6.00;;;;;19.57;54.64;100722.75;5098401;27;45733;-78
2023/07/03 03:25:06;;;;;;;;;6.67;6.67;;;;;19.63;54.85;100727.56;5096927;27;45521;-80
2023/07/03 03:27:31;;;;;;;;;6.33;6.33;;;;;19.41;54.50;100690.91;5098082;27;46177;-81
2023/07/03 03:29:57;;;;;;;;;8.00;7.00;;;;;19.42;54.15;100698.00;5097551;27;45449;-79
2023/07/03 03:32:22;;;;;;;;;9.67;8.67;;;;;19.56;54.47;100717.50;5096933;27;45250;-80
2023/07/03 03:34:47;;;;;;;;;9.00;6.67;;;;;19.56;54.61;100722.91;5097890;27;45288;-79
2023/07/03 03:37:13;;;;;;;;;7.33;7.00;;;;;19.50;54.23;100710.78;5097824;27;46234;-79
2023/07/03 03:39:38;;;;;;;;;7.33;7.33;;;;;19.61;54.51;100732.25;5097682;27;47621;-80
2023/07/03 03:42:04;;;;;;;;;7.67;6.33;;;;;19.49;54.75;100713.63;5097599;27;45327;-80
2023/07/03 03:44:29;;;;;;;;;7.33;7.33;;;;;19.63;54.65;100729.41;5098097;27;45222;-79
2023/07/03 03:46:54;;;;;;;;;9.00;7.33;;;;;19.58;54.94;100729.84;5097637;27;45433;-80
2023/07/03 03:49:20;;;;;;;;;8.00;6.00;;;;;19.52;55.13;100719.56;5097000;27;45416;-80
2023/07/03 03:51:45;;;;;;;;;13.00;9.00;;;;;19.50;54.75;100712.63;5096834;27;48920;-79
2023/07/03 03:54:11;;;;;;;;;10.67;8.67;;;;;19.55;55.35;100724.75;5097362;27;45874;-80
2023/07/03 03:56:36;;;;;;;;;9.00;8.67;;;;;19.30;55.30;100688.34;5097163;27;45719;-80
2023/07/03 03:59:02;;;;;;;;;9.33;7.33;;;;;19.34;55.45;100689.75;5097909;27;45386;-79
2023/07/03 04:01:27;;;;;;;;;7.00;6.33;;;;;19.58;54.90;100729.00;5096192;27;50572;-79
2023/07/03 04:03:56;;;;;;;;;9.67;8.33;;;;;19.38;55.37;100696.56;5097369;27;45476;-79
2023/07/03 04:06:21;;;;;;;;;8.00;6.67;;;;;19.62;55.63;100733.09;5097276;27;45273;-80
2023/07/03 04:08:46;;;;;;;;;6.33;6.33;;;;;19.51;55.81;100728.66;5096930;27;45286;-80
2023/07/03 04:11:14;;;;;;;;;6.33;5.67;;;;;19.52;55.90;100718.72;5096850;27;45421;-81
2023/07/03 04:13:39;;;;;;;;;7.67;7.67;;;;;19.54;55.63;100727.56;5097564;27;45187;-80
2023/07/03 04:16:04;;;;;;;;;10.00;9.00;;;;;19.65;56.07;100740.91;5097256;27;45820;-80
2023/07/03 04:18:31;;;;;;;;;8.67;7.67;;;;;19.52;55.57;100713.31;5096419;27;45463;-80
2023/07/03 04:20:57;;;;;;;;;10.33;8.00;;;;;19.61;56.28;100739.50;5096965;27;45423;-80
2023/07/03 04:23:24;;;;;;;;;9.00;8.00;;;;;19.56;57.14;100731.84;5097429;27;45464;-80
2023/07/03 04:25:50;;;;;;;;;6.00;4.67;;;;;19.47;56.78;100738.03;5096980;27;45997;-80
2023/07/03 04:28:17;;;;;;;;;9.67;7.00;;;;;19.52;56.78;100730.38;5096856;27;45314;-80
2023/07/03 04:30:42;;;;;;;;;8.33;6.00;;;;;19.54;56.96;100727.56;5096874;27;45355;-80
2023/07/03 04:33:08;;;;;;;;;8.00;8.00;;;;;19.48;56.67;100720.00;5097597;27;45421;-80
2023/07/03 04:35:34;;;;;;;;;8.00;7.00;;;;;19.48;56.70;100725.41;5097153;27;46057;-79
2023/07/03 04:38:01;;;;;;;;;6.33;6.00;;;;;19.61;57.08;100734.09;5095777;27;45385;-78
2023/07/03 04:40:27;;;;;;;;;6.33;5.67;;;;;19.64;56.75;100734.66;5096281;27;45314;-79
2023/07/03 04:42:52;;;;;;;;;5.67;5.33;;;;;19.66;56.91;100723.72;5097061;27;45372;-80
2023/07/03 04:45:18;;;;;;;;;7.67;7.67;;;;;19.35;56.80;100669.88;5096349;27;45889;-80
2023/07/03 04:47:43;;;;;;;;;10.00;6.33;;;;;19.55;56.93;100695.06;5096893;27;45356;-79
2023/07/03 04:50:12;;;;;;;;;7.33;6.00;;;;;19.74;56.91;100723.88;5096750;27;45555;-77
2023/07/03 04:52:38;;;;;;;;;10.33;7.00;;;;;19.70;56.73;100715.22;5096842;27;45496;-79
2023/07/03 04:55:08;;;;;;;;;7.33;7.33;;;;;19.82;55.80;100731.28;5096676;27;45351;-79
2023/07/03 04:57:38;;;;;;;;;6.67;6.67;;;;;19.73;56.28;100706.00;5096580;27;45342;-80
2023/07/03 05:20:53;;;;;;;;;8.33;7.00;;;;;19.90;57.09;100724.16;5086187;28;45669;-81
2023/07/03 05:23:19;;;;;;;;;7.67;6.67;;;;;19.73;57.50;100706.84;5095149;27;45483;-79
2023/07/03 05:25:47;;;;;;;;;7.00;5.67;;;;;19.84;57.37;100735.53;5109739;27;45161;-80
2023/07/03 05:28:13;;;;;;;;;10.67;7.00;;;;;19.84;57.18;100740.94;5108843;27;44812;-80
2023/07/03 05:30:38;;;;;;;;;6.00;6.00;;;;;19.82;57.33;100737.53;5107888;27;45302;-80
2023/07/03 05:33:03;;;;;;;;;7.00;5.33;;;;;19.68;57.14;100706.44;5114536;27;45440;-80
2023/07/03 05:35:29;;;;;;;;;9.33;7.00;;;;;19.82;57.12;100732.13;5120303;27;45864;-78
2023/07/03 05:37:54;;;;;;;;;7.67;6.00;;;;;19.82;56.86;100715.94;5117150;27;45357;-76
2023/07/03 05:40:20;;;;;;;;;6.00;6.00;;;;;19.85;56.50;100688.66;5112369;27;46059;-78
2023/07/03 05:42:45;;;;;;;;;7.00;5.67;;;;;20.03;56.40;100729.28;5108348;27;45387;-78
2023/07/03 05:45:11;;;;;;;;;6.00;6.00;;;;;20.11;55.87;100723.16;5108650;27;45839;-81
2023/07/03 05:47:36;;;;;;;;;5.00;4.33;;;;;20.10;55.08;100710.66;5111417;27;45205;-78
2023/07/03 05:50:03;;;;;;;;;7.33;5.67;;;;;20.17;55.14;100714.47;5102757;27;47318;-81
2023/07/03 05:52:28;;;;;;;;;6.67;6.33;;;;;20.25;54.99;100720.88;5102380;27;45274;-80
2023/07/03 05:54:53;;;;;;;;;6.00;6.00;;;;;19.99;54.79;100674.72;5108051;27;45378;-78
2023/07/03 05:57:20;;;;;;;;;7.67;7.67;;;;;20.24;54.78;100721.00;5114610;27;45812;-80
2023/07/03 05:59:46;;;;;;;;;6.00;5.67;;;;;20.22;54.85;100713.06;5110897;27;46242;-78
2023/07/03 06:02:13;;;;;;;;;9.00;5.67;;;;;20.28;54.68;100735.91;5105788;27;45283;-79
2023/07/03 06:04:39;;;;;;;;;8.67;6.67;;;;;20.33;54.53;100736.34;5107440;27;45366;-80
2023/07/03 06:07:05;;;;;;;;;11.33;6.67;;;;;20.28;54.04;100717.00;5104344;27;45223;-78
2023/07/03 06:09:31;;;;;;;;;6.00;6.00;;;;;20.42;53.90;100723.84;5102006;27;45525;-83
2023/07/03 06:11:56;;;;;;;;;6.00;5.33;;;;;20.31;53.69;100695.09;5103001;27;45380;-77
2023/07/03 06:14:23;;;;;;;;;8.00;7.33;;;;;20.34;53.33;100694.84;5103877;27;45525;-87
2023/07/03 06:16:49;;;;;;;;;6.67;6.00;;;;;20.50;52.68;100711.31;5104068;27;45333;-86
2023/07/03 06:19:18;;;;;;;;;5.00;5.00;;;;;20.74;52.23;100739.69;5109094;27;46918;-86
2023/07/03 06:21:43;;;;;;;;;8.33;3.67;;;;;20.69;51.82;100709.53;5108692;27;45275;-84
2023/07/03 06:24:11;;;;;;;;;7.00;7.00;;;;;20.86;51.70;100730.38;5089060;27;45373;-81
2023/07/03 06:26:39;;;;;;;;;7.00;6.00;;;;;20.92;51.57;100729.78;5091995;27;45872;-82
2023/07/03 06:29:05;;;;;;;;;9.00;6.00;;;;;20.76;51.43;100707.94;5113442;27;45377;-84
2023/07/03 06:31:31;;;;;;;;;7.00;6.67;;;;;20.90;51.82;100731.78;5108788;27;45514;-83
2023/07/03 06:33:56;;;;;;;;;5.67;5.33;;;;;20.86;52.02;100739.34;5100215;27;45392;-83
2023/07/03 06:36:22;;;;;;;;;8.00;6.33;;;;;20.80;51.85;100722.84;5089129;27;45415;-79
2023/07/03 06:38:52;;;;;;;;;6.67;5.00;;;;;21.05;51.91;100730.28;5093131;27;44994;-81
2023/07/03 06:41:18;;;;;;;;;7.33;5.00;;;;;21.07;51.70;100730.97;5092914;27;45187;-84
2023/07/03 06:43:43;;;;;;;;;8.67;5.33;;;;;20.91;52.04;100719.97;5098415;27;45379;-84
2023/07/03 06:46:10;;;;;;;;;5.00;5.00;;;;;21.03;51.91;100729.59;5100401;27;45784;-83
2023/07/03 06:48:36;;;;;;;;;5.67;5.67;;;;;20.88;52.48;100725.69;5100235;27;46227;-84
2023/07/03 06:51:03;;;;;;;;;7.00;6.00;;;;;20.98;52.39;100726.50;5099563;27;45375;-82
2023/07/03 06:53:29;;;;;;;;;9.00;7.33;;;;;20.97;51.94;100707.72;5101856;27;45368;-84
2023/07/03 06:56:01;;;;;;;;;6.33;4.00;;;;;21.28;50.91;100735.31;5106089;27;44818;-83
2023/07/03 06:58:27;;;;;;;;;6.33;5.00;;;;;21.37;50.71;100731.72;5111525;27;46242;-85
2023/07/03 07:00:52;;;;;;;;;7.33;4.67;;;;;21.35;50.38;100706.66;5109335;27;45469;-80
2023/07/03 07:03:18;;;;;;;;;4.67;4.33;;;;;21.54;49.83;100711.94;5115475;27;45520;-81
2023/07/03 07:05:43;;;;;;;;;8.00;4.67;;;;;21.50;49.66;100705.13;5108050;27;45484;-83
2023/07/03 07:08:16;;;;;;;;;5.75;4.50;;;;;21.61;49.68;100723.84;5087139;27;45353;-78
2023/07/03 07:10:43;;;;;;;;;8.00;8.00;;;;;21.69;50.33;100732.03;5105683;27;45344;-78
2023/07/03 07:13:08;;;;;;;;;5.67;5.67;;;;;21.71;50.28;100727.31;5100290;27;45437;-75
2023/07/03 07:15:39;;;;;;;;;6.67;6.33;;;;;21.85;50.22;100733.19;5116152;27;48194;-78
2023/07/03 07:18:06;;;;;;;;;7.00;5.00;;;;;21.34;49.92;100665.22;5104407;27;45612;-75
2023/07/03 07:20:39;;;;;;;;;5.00;5.00;;;;;21.66;50.41;100743.19;5104651;27;45362;-76
2023/07/03 07:23:04;;;;;;;;;6.00;5.75;;;;;21.37;51.03;100678.47;5111240;27;45391;-78
2023/07/03 07:25:29;;;;;;;;;5.67;4.33;;;;;21.69;50.94;100742.88;5115760;27;45542;-78
2023/07/03 07:27:56;;;;;;;;;6.33;5.00;;;;;21.33;50.92;100670.78;5109410;27;45621;-76
2023/07/03 07:30:22;;;;;;;;;5.67;3.00;;;;;21.68;50.53;100724.09;5105093;27;45574;-78
2023/07/03 07:32:49;;;;;;;;;6.67;4.67;;;;;21.78;50.11;100735.69;5114256;27;45496;-77
2023/07/03 07:35:15;;;;;;;;;5.50;5.50;;;;;21.71;49.57;100708.38;5094929;27;45369;-76
2023/07/03 07:37:41;;;;;;;;;7.67;4.67;;;;;21.98;49.75;100730.94;5118479;27;45463;-79
2023/07/03 07:40:07;;;;;;;;;7.00;6.00;;;;;21.90;49.87;100725.47;5115956;27;45279;-78
2023/07/03 07:42:32;;;;;;;;;5.00;4.00;;;;;21.99;49.89;100738.06;5108700;27;45425;-76
2023/07/03 07:44:57;;;;;;;;;5.25;4.75;;;;;21.86;49.97;100724.06;5122790;27;45217;-78
2023/07/03 07:47:23;;;;;;;;;7.00;7.00;;;;;21.65;50.03;100700.03;5092097;27;46127;-77
2023/07/03 07:49:48;;;;;;;;;6.33;4.67;;;;;21.90;49.63;100739.88;5113615;27;45326;-77
2023/07/03 07:52:15;;;;;;;;;6.67;5.67;;;;;21.94;49.87;100749.38;5117419;27;45756;-79
2023/07/03 07:54:41;;;;;;;;;4.50;4.50;;;;;21.92;49.54;100735.16;5110927;27;45534;-77
2023/07/03 07:57:06;;;;;;;;;4.00;4.00;;;;;21.92;49.98;100750.53;5125900;27;46457;-77
2023/07/03 07:59:34;;;;;;;;;7.00;4.00;;;;;21.76;50.24;100754.81;5110901;27;45908;-77
2023/07/03 08:01:59;;;;;;;;;6.25;5.00;;;;;21.70;49.97;100754.53;5110513;27;45478;-76
2023/07/03 08:04:25;;;;;;;;;3.25;3.25;;;;;21.56;50.14;100734.28;5110191;27;45633;-75
2023/07/03 08:06:50;;;;;;;;;5.67;5.33;;;;;21.77;49.86;100750.22;5105278;27;46337;-77
2023/07/03 08:09:17;;;;;;;;;4.33;4.33;;;;;21.72;49.69;100737.16;5117246;27;45366;-77
2023/07/03 08:11:46;;;;;;;;;7.50;5.25;;;;;21.83;49.76;100743.34;5109026;27;45359;-76
2023/07/03 08:14:12;;;;;;;;;5.00;5.00;;;;;21.95;49.15;100750.22;5108760;27;45512;-78
2023/07/03 08:16:37;;;;;;;;;5.00;5.00;;;;;21.99;48.84;100752.44;5110261;27;45820;-76
2023/07/03 08:19:03;;;;;;;;;6.50;4.75;;;;;22.10;48.89;100745.97;5117635;27;45423;-78
2023/07/03 08:21:28;;;;;;;;;7.25;5.00;;;;;22.32;48.17;100750.91;5096169;27;45332;-78
2023/07/03 08:23:53;;;;;;;;;6.75;5.25;;;;;22.32;47.76;100760.91;5112920;27;45354;-77
2023/07/03 08:26:21;;;;;;;;;7.25;7.25;;;;;22.13;48.24;100737.53;5114222;27;45396;-76
2023/07/03 08:28:47;;;;;;;;;6.75;3.75;;;;;22.24;47.79;100729.16;5116142;27;45346;-78
2023/07/03 08:31:12;;;;;;;;;9.00;5.00;;;;;22.34;47.90;100710.09;5112683;27;45382;-78
2023/07/03 08:33:37;;;;;;;;;6.50;5.50;;;;;22.68;47.54;100742.69;5107625;27;45451;-78
2023/07/03 08:36:04;;;;;;;;;7.75;6.00;;;;;22.65;47.19;100724.84;5118552;27;45458;-77
2023/07/03 08:38:29;;;;;;;;;12.50;4.25;;;;;22.78;46.91;100732.53;5098949;27;45595;-77
2023/07/03 08:40:59;;;;;;;;;6.00;6.00;;;;;22.93;47.13;100749.97;5112589;27;45812;-75
2023/07/03 08:43:32;;;;;;;;;5.75;5.75;;;;;22.76;46.59;100712.03;5121377;27;45839;-77
2023/07/03 08:45:57;;;;;;;;;5.75;5.75;;;;;22.75;46.44;100689.50;5114910;27;45494;-78
2023/07/03 08:48:27;;;;;;;;;7.00;5.00;;;;;22.80;46.65;100705.28;5121772;27;45462;-79
2023/07/03 08:50:59;;;;;;;;;5.50;5.00;;;;;22.88;46.67;100751.44;5110205;27;45504;-77
2023/07/03 08:53:47;;;;;;;;;6.50;6.25;;;;;22.75;47.40;100749.16;5123134;27;45276;-77
2023/07/03 08:56:22;;;;;;;;;5.25;5.25;;;;;22.55;47.18;100737.69;5114050;27;45355;-78
2023/07/03 08:58:52;;;;;;;;;9.00;6.00;;;;;22.46;47.35;100725.09;5112016;27;44668;-77
2023/07/03 09:01:34;;;;;;;;;5.00;5.00;;;;;22.66;47.65;100747.41;5125236;27;45483;-78
2023/07/03 09:04:18;;;;;;;;;7.00;7.00;;;;;22.77;47.03;100751.69;5119771;27;45434;-78
2023/07/03 09:06:58;;;;;;;;;5.75;4.50;;;;;22.72;47.00;100756.75;5110345;27;45332;-77
2023/07/03 09:09:53;;;;;;;;;5.25;5.25;;;;;22.59;46.72;100765.31;5095566;27;45444;-78
2023/07/03 09:12:33;;;;;;;;;7.50;6.75;;;;;22.41;46.95;100764.53;5102735;27;45538;-78
2023/07/03 09:15:22;;;;;;;;;8.50;5.75;;;;;22.43;47.36;100768.78;5117812;27;45281;-77
2023/07/03 09:17:49;;;;;;;;;4.00;2.00;;;;;22.55;47.12;100755.81;5109492;27;45461;-78
2023/07/03 09:20:15;;;;;;;;;9.50;7.00;;;;;22.69;46.37;100763.34;5108811;27;45358;-77
2023/07/03 09:22:50;;;;;;;;;6.75;5.75;;;;;22.83;46.73;100765.50;5112104;27;45585;-77
2023/07/03 09:25:34;;;;;;;;;8.25;6.75;;;;;23.16;45.92;100769.22;5108987;27;45471;-78
2023/07/03 09:28:01;;;;;;;;;7.75;6.75;;;;;23.44;45.79;100766.28;5089879;27;45491;-78
2023/07/03 09:30:27;;;;;;;;;5.00;5.00;;;;;23.80;44.79;100756.03;5109542;27;45366;-77
2023/07/03 09:32:52;;;;;;;;;6.50;6.50;;;;;23.97;43.89;100752.31;5110942;27;45274;-77
2023/07/03 09:35:20;;;;;;;;;7.00;7.00;;;;;23.92;43.48;100724.81;5117918;27;45709;-78
2023/07/03 09:37:50;;;;;;;;;7.25;7.25;;;;;24.10;44.15;100733.66;5112027;27;45581;-78
2023/07/03 09:40:20;;;;;;;;;5.00;3.50;;;;;24.17;43.36;100738.38;5097733;27;45357;-79
2023/07/03 09:42:45;;;;;;;;;5.75;5.75;;;;;24.14;43.50;100745.03;5115165;27;45477;-76
2023/07/03 09:45:16;;;;;;;;;6.00;5.00;;;;;24.09;43.11;100718.38;5097981;27;45709;-77
2023/07/03 09:47:57;;;;;;;;;5.25;5.25;;;;;24.31;43.30;100751.31;5113152;27;46400;-78
2023/07/03 09:50:30;;;;;;;;;7.50;5.00;;;;;24.40;42.96;100739.44;5116136;27;45482;-78
2023/07/03 09:52:57;;;;;;;;;5.00;5.00;;;;;24.67;42.67;100754.50;5107520;27;45305;-78
2023/07/03 09:55:26;;;;;;;;;4.50;3.50;;;;;24.66;42.66;100756.38;5118466;27;45541;-78
2023/07/03 09:57:52;;;;;;;;;4.25;4.25;;;;;24.73;42.48;100761.09;5110579;27;45793;-78
2023/07/03 10:00:21;;;;;;;;;7.75;4.75;;;;;24.81;42.84;100761.09;5110157;27;45689;-79
2023/07/03 10:02:54;;;;;;;;;6.50;5.25;;;;;24.60;42.96;100740.72;5090346;27;45534;-77
2023/07/03 10:05:32;;;;;;;;;5.00;5.00;;;;;24.58;42.42;100759.09;5107841;27;45700;-79
2023/07/03 10:08:04;;;;;;;;;4.75;4.75;;;;;24.56;42.65;100771.19;5125308;27;45391;-77
2023/07/03 10:10:33;;;;;;;;;5.50;4.50;;;;;24.39;42.35;100754.03;5113895;27;45423;-79
2023/07/03 10:13:14;;;;;;;;;4.50;4.50;;;;;24.45;42.72;100775.09;5121088;27;45527;-77
2023/07/03 10:15:41;;;;;;;;;10.25;5.00;;;;;24.60;42.54;100764.34;5111915;27;45516;-79
2023/07/03 10:18:18;;;;;;;;;9.25;4.25;;;;;24.57;42.09;100760.13;5110300;27;45406;-80
2023/07/03 10:20:48;;;;;;;;;4.60;4.60;;;;;24.70;42.05;100770.47;5111895;27;45396;-77
2023/07/03 10:23:23;;;;;;;;;7.00;6.00;;;;;24.75;42.37;100780.84;5085792;27;45346;-78
2023/07/03 10:26:06;;;;;;;;;4.00;4.00;;;;;24.73;41.93;100777.44;5109467;27;45470;-78
2023/07/03 10:28:38;;;;;;;;;4.75;4.75;;;;;24.77;41.50;100781.53;5111567;27;45794;-77
2023/07/03 10:31:13;;;;;;;;;7.00;5.25;;;;;24.87;41.34;100774.00;5111541;27;45459;-77
2023/07/03 10:33:45;;;;;;;;;5.00;5.00;;;;;24.92;40.92;100777.06;5123797;27;45398;-78
2023/07/03 10:36:16;;;;;;;;;6.50;5.25;;;;;24.97;40.32;100774.66;5107514;27;45443;-77
2023/07/03 10:38:46;;;;;;;;;7.25;6.00;;;;;25.06;40.87;100772.78;5108067;27;46085;-78
2023/07/03 10:41:21;;;;;;;;;7.60;5.20;;;;;25.23;40.52;100764.38;5126130;27;45290;-77
2023/07/03 10:43:52;;;;;;;;;6.40;4.80;;;;;25.13;40.19;100743.81;5126215;27;45458;-78
2023/07/03 10:46:33;;;;;;;;;6.75;4.75;;;;;25.16;39.97;100752.50;5110838;27;45354;-79
2023/07/03 10:49:04;;;;;;;;;5.25;4.00;;;;;25.22;38.94;100740.06;5120399;27;46110;-78
2023/07/03 10:51:55;;;;;;;;;2.20;2.00;;;;;25.32;38.49;100734.41;5109355;27;45399;-79
2023/07/03 10:54:29;;;;;;;;;5.60;3.00;;;;;25.02;38.60;100742.38;5109558;27;45264;-78
2023/07/03 10:56:58;;;;;;;;;5.75;4.00;;;;;24.85;38.77;100754.28;5087585;27;45833;-80
2023/07/03 10:59:28;;;;;;;;;5.00;4.00;;;;;24.75;37.59;100769.97;5114768;27;46030;-80
2023/07/03 11:02:05;;;;;;;;;6.75;4.25;;;;;24.66;38.42;100761.81;5100503;27;45466;-80
2023/07/03 11:04:39;;;;;;;;;5.00;5.00;;;;;24.61;38.89;100753.34;5114408;27;45874;-78
2023/07/03 11:07:13;;;;;;;;;4.50;3.00;;;;;24.66;38.18;100750.94;5109232;27;45502;-79
2023/07/03 11:10:00;;;;;;;;;3.25;3.25;;;;;24.65;37.10;100765.56;5110406;27;45726;-78
2023/07/03 11:12:35;;;;;;;;;3.40;3.40;;;;;24.68;37.07;100759.75;5095199;27;45449;-77
2023/07/03 11:15:22;;;;;;;;;4.75;4.25;;;;;24.67;35.59;100763.50;5114894;27;45259;-78
2023/07/03 11:18:35;;;;;;;;;4.75;4.75;;;;;24.47;35.30;100756.72;5107153;27;45311;-78
2023/07/03 11:21:19;;;;;;;;;4.00;3.00;;;;;24.40;34.95;100766.63;5070218;27;45443;-77
2023/07/03 11:23:51;;;;;;;;;3.75;3.00;;;;;24.38;34.24;100753.19;5092295;27;45464;-77
2023/07/03 11:26:36;;;;;;;;;3.50;3.50;;;;;24.51;34.08;100760.81;5113397;27;45476;-80
2023/07/03 11:29:03;;;;;;;;;2.00;2.00;;;;;24.47;33.53;100750.44;5121115;27;45435;-79
2023/07/03 11:31:30;;;;;;;;;6.75;5.75;;;;;24.60;33.56;100745.31;5098305;27;45841;-79
2023/07/03 11:33:56;;;;;;;;;2.40;2.40;;;;;24.64;33.69;100725.78;5119604;27;45333;-77
2023/07/03 11:36:33;;;;;;;;;4.75;2.75;;;;;25.19;32.17;100760.31;5114971;27;45423;-78
2023/07/03 11:39:14;;;;;;;;;6.00;3.00;;;;;25.35;31.59;100712.25;5095607;27;45433;-78
2023/07/03 11:41:56;;;;;;;;;1.50;1.50;;;;;25.97;31.19;100742.19;5108870;27;45363;-77
2023/07/03 11:44:30;;;;;;;;;2.40;1.80;;;;;26.42;29.88;100741.28;5098988;27;45455;-79
2023/07/03 11:47:07;;;;;;;;;2.80;2.80;;;;;26.74;29.29;100749.16;5115070;27;45248;-78
2023/07/03 11:49:36;;;;;;;;;2.75;2.75;;;;;27.05;28.46;100742.66;5106977;27;45372;-79
2023/07/03 11:52:05;;;;;;;;;4.00;2.40;;;;;27.63;29.80;100719.00;5091953;27;47433;-79